Time;durP1;ratioP1;P1;durP2;ratioP2;P2;SDS_P1;SDS_P2;PMS_P1;PMS_P2;Temp;Humidity;BMP_temperature;BMP_pressure;BME280_temperature;BME280_humidity;BME280_pressure;Samples;Min_cycle;Max_cycle;Signal;HPM_P1;HPM_P2
2022/08/05 00:01:21;;;;;;;6.85;5.03;;;20.20;99.90;;;;;;5098217;28;20239;-74
2022/08/05 00:03:49;;;;;;;8.55;4.65;;;20.20;99.90;;;;;;5116819;28;20168;-74
2022/08/05 00:06:15;;;;;;;4.38;3.97;;;20.20;99.90;;;;;;5116867;28;20171;-74
2022/08/05 00:08:41;;;;;;;6.88;4.22;;;20.10;92.50;;;;;;5116353;28;20170;-74
2022/08/05 00:11:13;;;;;;;4.43;3.88;;;20.10;92.20;;;;;;5116369;28;20163;-74
2022/08/05 00:13:41;;;;;;;6.47;3.80;;;20.20;88.90;;;;;;5115914;28;20251;-74
2022/08/05 00:16:08;;;;;;;9.55;3.85;;;20.10;62.90;;;;;;5096609;28;20171;-75
2022/08/05 00:18:35;;;;;;;7.10;3.53;;;20.10;68.10;;;;;;5116543;28;20170;-75
2022/08/05 00:21:00;;;;;;;9.05;4.63;;;20.10;52.20;;;;;;5116597;28;20251;-74
2022/08/05 00:23:26;;;;;;;7.45;5.20;;;20.20;93.30;;;;;;5116550;28;20164;-75
2022/08/05 00:25:52;;;;;;;6.38;3.90;;;20.30;99.90;;;;;;5116483;28;20524;-76
2022/08/05 00:28:18;;;;;;;10.93;5.32;;;20.20;94.90;;;;;;5116561;28;20166;-75
2022/08/05 00:30:43;;;;;;;7.28;4.88;;;20.30;99.90;;;;;;5116110;28;20167;-76
2022/08/05 00:33:09;;;;;;;5.85;5.05;;;20.40;99.90;;;;;;5116091;28;20187;-76
2022/08/05 00:35:35;;;;;;;7.65;4.80;;;20.40;99.90;;;;;;5098063;28;20221;-76
2022/08/05 00:38:01;;;;;;;6.85;4.97;;;20.40;99.90;;;;;;5116252;28;20171;-76
2022/08/05 00:40:27;;;;;;;9.20;5.45;;;20.40;99.90;;;;;;5115909;28;20163;-76
2022/08/05 00:42:54;;;;;;;8.35;5.32;;;20.40;99.90;;;;;;5116118;28;20641;-75
2022/08/05 00:45:20;;;;;;;9.95;5.28;;;20.50;99.90;;;;;;5115820;28;20250;-75
2022/08/05 00:47:46;;;;;;;8.45;5.03;;;20.40;99.90;;;;;;5097725;28;20577;-75
2022/08/05 00:50:11;;;;;;;7.70;5.30;;;20.20;99.90;;;;;;5115882;28;20563;-75
2022/08/05 00:52:37;;;;;;;6.95;4.80;;;20.10;99.90;;;;;;5115960;28;20169;-75
2022/08/05 00:55:03;;;;;;;11.18;5.40;;;20.10;99.90;;;;;;5115905;28;20191;-75
2022/08/05 00:57:29;;;;;;;5.72;4.88;;;20.10;99.30;;;;;;5115661;28;20193;-75
2022/08/05 00:59:54;;;;;;;6.22;4.60;;;20.00;94.80;;;;;;5115298;28;20666;-75
2022/08/05 01:02:20;;;;;;;6.93;4.70;;;19.90;93.60;;;;;;5115511;28;20256;-75
2022/08/05 01:04:46;;;;;;;10.85;6.38;;;19.70;93.80;;;;;;5115704;28;20164;-76
2022/08/05 01:07:11;;;;;;;5.20;4.63;;;19.70;99.90;;;;;;5115669;28;20513;-76
2022/08/05 01:09:37;;;;;;;7.22;4.55;;;19.60;99.90;;;;;;5115639;28;20179;-75
2022/08/05 01:12:08;;;;;;;6.65;4.15;;;19.50;99.90;;;;;;5115058;28;20753;-74
2022/08/05 01:14:36;;;;;;;6.93;4.60;;;19.40;99.90;;;;;;5115295;28;20699;-74
2022/08/05 01:17:12;;;;;;;6.47;5.13;;;19.50;99.90;;;;;;5097075;28;20163;-74
2022/08/05 01:19:51;;;;;;;8.88;5.45;;;19.50;99.90;;;;;;5115384;28;20652;-74
2022/08/05 01:22:25;;;;;;;10.50;5.22;;;19.50;99.90;;;;;;5115435;28;20260;-74
2022/08/05 01:24:58;;;;;;;7.63;4.63;;;19.50;99.90;;;;;;5115239;28;20316;-74
2022/08/05 01:27:31;;;;;;;7.60;5.13;;;19.40;99.90;;;;;;5113974;28;20627;-74
2022/08/05 01:30:01;;;;;;;5.47;4.80;;;19.30;99.90;;;;;;5115189;28;20160;-74
2022/08/05 01:32:32;;;;;;;6.60;4.72;;;19.30;99.90;;;;;;5096895;28;20191;-75
2022/08/05 01:35:01;;;;;;;9.40;4.68;;;19.20;99.90;;;;;;5115131;28;20160;-75
2022/08/05 01:37:50;;;;;;;5.53;4.40;;;19.20;99.90;;;;;;5096564;28;20171;-75
2022/08/05 01:40:18;;;;;;;4.00;3.70;;;19.20;99.90;;;;;;5114929;28;20702;-75
2022/08/05 01:42:45;;;;;;;6.72;4.22;;;19.20;99.90;;;;;;5114434;28;20545;-74
2022/08/05 01:45:14;;;;;;;7.03;4.30;;;19.20;99.90;;;;;;5096541;28;20171;-74
2022/08/05 01:47:40;;;;;;;6.30;3.93;;;19.20;99.30;;;;;;5114764;28;20167;-74
2022/08/05 01:50:29;;;;;;;7.00;4.20;;;19.20;98.90;;;;;;5114480;28;20175;-74
2022/08/05 01:52:58;;;;;;;7.43;4.47;;;19.30;94.90;;;;;;5114726;28;20168;-74
2022/08/05 01:55:29;;;;;;;9.70;4.63;;;19.30;99.90;;;;;;5114659;28;20167;-75
2022/08/05 01:57:56;;;;;;;7.67;4.67;;;19.40;99.90;;;;;;5114688;28;20169;-75
2022/08/05 02:00:22;;;;;;;8.77;4.63;;;19.50;99.90;;;;;;5114460;28;20220;-75
2022/08/05 02:02:53;;;;;;;9.20;4.47;;;19.40;97.00;;;;;;5114371;28;20258;-74
2022/08/05 02:05:21;;;;;;;7.95;4.43;;;19.40;97.00;;;;;;5114597;28;20175;-74
2022/08/05 02:07:47;;;;;;;7.25;4.60;;;19.40;99.90;;;;;;5114847;28;20536;-74
2022/08/05 02:10:13;;;;;;;5.13;4.63;;;19.40;99.90;;;;;;5113978;28;20622;-74
2022/08/05 02:12:57;;;;;;;8.82;4.80;;;19.40;99.90;;;;;;5114047;28;20284;-74
2022/08/05 02:15:40;;;;;;;8.68;5.05;;;19.40;99.90;;;;;;5114290;28;20250;-74
2022/08/05 02:18:13;;;;;;;5.18;4.30;;;19.40;99.90;;;;;;5114338;28;20187;-74
2022/08/05 02:21:11;;;;;;;7.20;5.28;;;19.50;99.90;;;;;;5114141;28;20175;-74
2022/08/05 02:23:39;;;;;;;6.45;4.88;;;19.50;99.90;;;;;;5114100;28;20195;-74
2022/08/05 02:26:07;;;;;;;7.88;5.05;;;19.50;99.90;;;;;;5113814;28;20186;-75
2022/08/05 02:28:38;;;;;;;8.68;5.13;;;19.60;99.90;;;;;;5095712;28;20258;-75
2022/08/05 02:31:15;;;;;;;10.90;5.22;;;19.60;99.90;;;;;;5114161;28;20175;-75
2022/08/05 02:33:56;;;;;;;8.70;5.68;;;19.70;99.90;;;;;;5114217;28;20166;-75
2022/08/05 02:36:24;;;;;;;6.45;4.90;;;19.80;99.90;;;;;;5114050;28;20163;-75
2022/08/05 02:38:51;;;;;;;7.88;5.18;;;19.80;99.90;;;;;;5113747;28;20182;-75
2022/08/05 02:41:18;;;;;;;10.48;5.32;;;19.90;99.90;;;;;;5113198;28;20209;-75
2022/08/05 02:43:46;;;;;;;9.75;5.60;;;19.80;99.50;;;;;;5113853;28;20173;-75
2022/08/05 02:46:15;;;;;;;11.50;5.40;;;19.90;99.90;;;;;;5113938;28;20312;-75
2022/08/05 02:48:42;;;;;;;9.18;5.45;;;20.00;99.90;;;;;;5113582;28;20159;-74
2022/08/05 02:51:08;;;;;;;8.77;5.43;;;20.00;99.50;;;;;;5113653;28;20202;-75
2022/08/05 02:53:36;;;;;;;6.30;5.25;;;20.00;94.70;;;;;;5113915;28;20260;-74
2022/08/05 02:56:03;;;;;;;9.48;5.18;;;20.00;98.60;;;;;;5113394;28;20173;-74
2022/08/05 02:58:30;;;;;;;7.95;5.53;;;19.80;98.50;;;;;;5113886;28;20175;-74
2022/08/05 03:00:59;;;;;;;11.27;5.63;;;19.70;99.20;;;;;;5113314;28;20222;-75
2022/08/05 03:03:27;;;;;;;10.40;5.25;;;19.70;99.90;;;;;;5113762;28;20166;-75
2022/08/05 03:05:53;;;;;;;9.13;5.60;;;19.80;99.90;;;;;;5113496;28;20171;-75
2022/08/05 03:08:20;;;;;;;7.20;5.35;;;19.70;99.90;;;;;;5113298;28;20202;-75
2022/08/05 03:10:45;;;;;;;10.35;5.65;;;19.70;99.90;;;;;;5113476;28;20167;-75
2022/08/05 03:13:15;;;;;;;8.38;5.93;;;19.60;99.90;;;;;;5113471;28;20331;-75
2022/08/05 03:15:46;;;;;;;15.55;5.97;;;19.50;99.90;;;;;;5113423;28;20163;-74
2022/08/05 03:18:13;;;;;;;11.70;6.07;;;19.60;99.90;;;;;;5113603;28;20568;-74
2022/08/05 03:20:38;;;;;;;12.30;5.68;;;19.50;99.90;;;;;;5113177;28;20171;-75
2022/08/05 03:23:05;;;;;;;9.85;6.00;;;19.50;99.90;;;;;;5094647;28;20179;-75
2022/08/05 03:25:33;;;;;;;8.80;6.22;;;19.60;99.90;;;;;;5113421;28;20254;-75
2022/08/05 03:28:00;;;;;;;10.13;6.10;;;19.70;99.90;;;;;;5113425;28;20175;-74
2022/08/05 03:30:31;;;;;;;11.05;6.05;;;19.60;99.90;;;;;;5113277;28;20233;-75
2022/08/05 03:32:58;;;;;;;9.68;6.07;;;19.50;99.90;;;;;;5113245;28;20195;-74
2022/08/05 03:35:25;;;;;;;7.90;5.93;;;19.40;99.90;;;;;;5113112;28;20202;-74
2022/08/05 03:37:52;;;;;;;9.43;6.47;;;19.30;99.90;;;;;;5094752;28;20540;-74
2022/08/05 03:40:18;;;;;;;10.30;6.55;;;19.30;99.90;;;;;;5113031;28;20649;-75
2022/08/05 03:42:43;;;;;;;12.35;6.32;;;19.30;99.90;;;;;;5112902;28;20203;-74
2022/08/05 03:45:09;;;;;;;10.82;6.25;;;19.30;99.90;;;;;;5113070;28;20646;-75
2022/08/05 03:47:35;;;;;;;11.32;6.35;;;19.40;99.90;;;;;;5113046;28;20175;-75
2022/08/05 03:50:00;;;;;;;11.73;6.90;;;19.50;99.90;;;;;;5113055;28;20630;-74
2022/08/05 03:52:32;;;;;;;11.30;6.18;;;19.50;99.90;;;;;;5116692;28;20517;-74
2022/08/05 03:55:27;;;;;;;12.40;6.40;;;19.60;99.90;;;;;;5116867;28;20181;-74
2022/08/05 03:57:54;;;;;;;14.80;6.40;;;19.60;99.90;;;;;;5114211;28;20186;-74
2022/08/05 04:00:25;;;;;;;12.75;6.47;;;19.50;99.90;;;;;;5116637;28;20250;-74
2022/08/05 04:02:53;;;;;;;9.77;6.32;;;19.50;99.90;;;;;;5116411;28;20634;-74
2022/08/05 04:05:20;;;;;;;11.35;7.07;;;19.60;99.90;;;;;;5116494;28;20167;-74
2022/08/05 04:07:46;;;;;;;11.98;6.55;;;19.60;99.90;;;;;;5115992;28;20168;-74
2022/08/05 04:10:12;;;;;;;12.00;6.47;;;19.60;99.90;;;;;;5116549;28;20164;-74
2022/08/05 04:12:37;;;;;;;10.90;6.32;;;19.60;99.90;;;;;;5115998;28;20580;-74
2022/08/05 04:15:04;;;;;;;13.23;7.03;;;19.50;99.90;;;;;;5098197;28;20681;-74
2022/08/05 04:17:32;;;;;;;11.50;6.53;;;19.50;99.90;;;;;;5116033;28;20167;-74
2022/08/05 04:19:58;;;;;;;12.10;6.90;;;19.60;99.90;;;;;;5116428;28;20179;-74
2022/08/05 04:22:23;;;;;;;15.23;7.00;;;19.60;99.90;;;;;;5115561;28;20215;-74
2022/08/05 04:24:49;;;;;;;11.30;6.78;;;19.50;99.90;;;;;;5116272;28;20175;-74
2022/08/05 04:27:15;;;;;;;14.93;7.57;;;19.60;99.90;;;;;;5116280;28;20222;-74
2022/08/05 04:29:41;;;;;;;13.68;7.55;;;19.60;99.90;;;;;;5116165;28;20615;-75
2022/08/05 04:32:07;;;;;;;11.75;7.05;;;19.60;99.90;;;;;;5115649;28;20210;-74
2022/08/05 04:34:33;;;;;;;12.90;7.20;;;19.40;99.60;;;;;;5115923;28;20195;-74
2022/08/05 04:36:59;;;;;;;12.75;7.28;;;19.40;99.90;;;;;;5097104;28;20283;-74
2022/08/05 04:39:25;;;;;;;15.07;7.32;;;19.30;99.90;;;;;;5115762;28;20303;-74
2022/08/05 04:41:50;;;;;;;12.38;7.63;;;19.30;99.90;;;;;;5116037;28;20551;-74
2022/08/05 04:44:16;;;;;;;13.77;7.20;;;19.20;99.90;;;;;;5115940;28;20634;-74
2022/08/05 04:46:42;;;;;;;13.35;7.72;;;19.20;99.90;;;;;;5115457;28;20243;-74
2022/08/05 04:49:08;;;;;;;11.95;7.20;;;19.20;99.90;;;;;;5115769;28;20220;-74
2022/08/05 04:51:33;;;;;;;12.38;7.65;;;19.20;99.90;;;;;;5115165;28;20713;-74
2022/08/05 04:53:59;;;;;;;12.45;7.15;;;19.20;99.90;;;;;;5115134;28;20250;-74
2022/08/05 04:56:25;;;;;;;13.20;6.85;;;19.30;99.90;;;;;;5115639;28;20197;-74
2022/08/05 04:58:50;;;;;;;12.55;7.00;;;19.30;99.90;;;;;;5115207;28;20167;-74
2022/08/05 05:01:16;;;;;;;17.20;7.15;;;19.40;99.90;;;;;;5115508;28;20534;-74
2022/08/05 05:03:42;;;;;;;11.95;7.03;;;19.40;99.90;;;;;;5115266;28;20532;-74
2022/08/05 05:06:12;;;;;;;12.68;6.85;;;19.40;95.70;;;;;;5114450;28;20509;-74
2022/08/05 05:08:38;;;;;;;11.18;6.53;;;19.20;99.90;;;;;;5115174;28;20194;-74
2022/08/05 05:11:04;;;;;;;11.10;6.32;;;19.20;99.90;;;;;;5114881;28;20216;-74
2022/08/05 05:13:30;;;;;;;13.45;7.00;;;19.30;99.90;;;;;;5115287;28;20187;-74
2022/08/05 05:15:56;;;;;;;10.43;6.60;;;19.30;99.90;;;;;;5114793;28;20653;-74
2022/08/05 05:18:21;;;;;;;10.23;6.88;;;19.40;99.90;;;;;;5115114;28;20168;-74
2022/08/05 05:20:47;;;;;;;17.75;7.60;;;19.40;99.90;;;;;;5114595;28;20202;-74
2022/08/05 05:23:13;;;;;;;10.10;6.20;;;19.50;94.80;;;;;;5114523;28;20164;-74
2022/08/05 05:25:43;;;;;;;11.30;6.97;;;19.60;94.70;;;;;;5096242;28;20306;-75
2022/08/05 05:28:10;;;;;;;13.15;6.70;;;19.60;93.60;;;;;;5114912;28;20167;-74
2022/08/05 05:30:37;;;;;;;9.10;6.47;;;19.60;89.10;;;;;;5114669;28;20168;-74
2022/08/05 05:33:04;;;;;;;12.55;6.05;;;19.50;85.60;;;;;;5114331;28;20183;-75
2022/08/05 05:35:31;;;;;;;12.98;6.53;;;19.60;90.10;;;;;;5114448;28;20163;-74
2022/08/05 05:37:59;;;;;;;9.70;6.47;;;19.60;83.50;;;;;;5114613;28;20186;-75
2022/08/05 05:40:26;;;;;;;9.88;6.03;;;19.70;81.90;;;;;;5114140;28;20242;-75
2022/08/05 05:42:52;;;;;;;12.55;6.32;;;19.80;75.90;;;;;;5114867;28;20256;-75
2022/08/05 05:45:18;;;;;;;10.32;6.10;;;19.90;63.70;;;;;;5114129;28;20638;-75
2022/08/05 05:47:45;;;;;;;7.15;6.45;;;19.70;58.10;;;;;;5113898;28;20172;-74
2022/08/05 05:50:12;;;;;;;10.23;6.05;;;19.60;65.20;;;;;;5114269;28;20168;-75
2022/08/05 05:52:38;;;;;;;10.48;6.10;;;19.50;77.80;;;;;;5114174;28;20522;-75
2022/08/05 05:55:09;;;;;;;10.13;6.05;;;19.40;83.50;;;;;;5114117;28;20569;-74
2022/08/05 05:57:38;;;;;;;10.57;6.38;;;19.40;83.90;;;;;;5114107;28;20167;-75
2022/08/05 06:00:07;;;;;;;15.38;6.50;;;19.50;89.80;;;;;;5114203;28;20159;-74
2022/08/05 06:02:33;;;;;;;10.10;6.30;;;19.60;75.80;;;;;;5113171;28;20214;-75
2022/08/05 06:04:58;;;;;;;12.68;5.93;;;19.60;57.60;;;;;;5114237;28;20159;-75
2022/08/05 06:07:24;;;;;;;12.35;6.18;;;19.60;63.40;;;;;;5113778;28;20228;-74
2022/08/05 06:09:50;;;;;;;11.27;6.03;;;19.70;66.50;;;;;;5113178;28;20163;-74
2022/08/05 06:12:15;;;;;;;15.98;6.07;;;20.30;52.10;;;;;;5113633;28;20231;-74
2022/08/05 06:14:43;;;;;;;12.13;5.60;;;20.40;28.40;;;;;;5113682;28;20626;-74
2022/08/05 06:17:09;;;;;;;11.45;5.65;;;20.70;15.90;;;;;;5113213;28;20295;-74
2022/08/05 06:19:34;;;;;;;11.75;5.70;;;20.90;16.90;;;;;;5113563;28;20174;-74
2022/08/05 06:22:00;;;;;;;9.23;5.63;;;21.20;3.50;;;;;;5113714;28;20203;-75
2022/08/05 06:24:26;;;;;;;11.18;5.70;;;21.60;1.00;;;;;;5113754;28;20679;-75
2022/08/05 06:26:51;;;;;;;10.77;6.10;;;21.70;1.00;;;;;;5113450;28;20210;-74
2022/08/05 06:29:17;;;;;;;13.82;5.80;;;21.60;1.00;;;;;;5094866;28;20303;-74
2022/08/05 06:31:43;;;;;;;13.82;5.68;;;21.30;1.00;;;;;;5113086;28;20590;-74
2022/08/05 06:34:08;;;;;;;11.95;6.15;;;21.50;1.00;;;;;;5095488;28;20454;-75
2022/08/05 06:36:34;;;;;;;8.60;6.05;;;21.60;1.00;;;;;;5113377;28;20254;-75
2022/08/05 06:39:00;;;;;;;9.65;6.50;;;21.50;1.00;;;;;;5113123;28;20567;-74
2022/08/05 06:41:25;;;;;;;10.52;6.47;;;21.70;1.00;;;;;;5113451;28;20191;-74
2022/08/05 06:43:51;;;;;;;16.02;6.65;;;21.80;1.00;;;;;;5113271;28;20626;-75
2022/08/05 06:46:16;;;;;;;11.45;6.45;;;21.90;1.00;;;;;;5094570;28;20167;-74
2022/08/05 06:48:42;;;;;;;10.90;6.25;;;21.40;1.00;;;;;;5095307;28;20207;-74
2022/08/05 06:51:08;;;;;;;9.15;6.28;;;21.30;1.00;;;;;;5113239;28;20187;-75
2022/08/05 06:53:34;;;;;;;9.73;5.75;;;21.50;1.00;;;;;;5094729;28;20662;-76
2022/08/05 06:56:04;;;;;;;10.02;5.85;;;22.30;1.00;;;;;;5113281;28;20175;-77
2022/08/05 06:58:30;;;;;;;12.10;5.22;;;24.00;1.00;;;;;;5113092;28;20174;-77
2022/08/05 07:01:00;;;;;;;11.27;5.20;;;24.40;1.00;;;;;;5112777;28;20195;-78
2022/08/05 07:03:27;;;;;;;11.00;5.25;;;23.90;1.00;;;;;;5112828;28;20171;-76
2022/08/05 07:05:53;;;;;;;10.18;5.13;;;22.90;1.00;;;;;;5112853;28;20250;-76
2022/08/05 07:08:21;;;;;;;10.23;5.57;;;22.60;1.00;;;;;;5113009;28;20202;-77
2022/08/05 07:10:47;;;;;;;7.93;5.32;;;22.30;1.00;;;;;;5093428;28;20175;-76
2022/08/05 07:18:41;;;;;;;11.32;6.03;;;22.70;1.00;;;;;;5113292;28;20214;-75
2022/08/05 07:21:06;;;;;;;11.80;4.90;;;22.70;1.00;;;;;;5112843;28;20230;-76
2022/08/05 07:23:32;;;;;;;6.90;5.13;;;23.00;1.00;;;;;;5112596;28;20173;-76
2022/08/05 07:25:58;;;;;;;9.75;4.93;;;22.90;1.00;;;;;;5114645;28;20241;-76
2022/08/05 07:28:24;;;;;;;9.48;5.20;;;22.80;1.00;;;;;;5117354;28;20171;-77
2022/08/05 07:30:49;;;;;;;6.18;5.05;;;23.00;1.00;;;;;;5116583;28;20175;-77
2022/08/05 07:33:15;;;;;;;7.80;5.15;;;23.20;1.00;;;;;;5116766;28;20179;-76
2022/08/05 07:35:41;;;;;;;8.57;5.15;;;22.50;1.00;;;;;;5117170;28;20250;-76
2022/08/05 07:38:06;;;;;;;6.68;4.97;;;22.80;1.00;;;;;;5116828;28;20163;-76
2022/08/05 07:40:32;;;;;;;7.97;5.20;;;23.00;1.00;;;;;;5116827;28;20167;-77
2022/08/05 07:42:57;;;;;;;6.68;4.72;;;23.20;1.00;;;;;;5116684;28;20262;-77
2022/08/05 07:45:23;;;;;;;9.13;4.68;;;23.20;1.00;;;;;;5116030;28;20271;-76
2022/08/05 07:47:49;;;;;;;7.75;5.13;;;22.80;1.00;;;;;;5117257;28;20266;-77
2022/08/05 07:50:14;;;;;;;8.10;5.38;;;22.80;1.00;;;;;;5116847;28;20641;-77
2022/08/05 07:52:45;;;;;;;12.02;5.18;;;22.80;1.00;;;;;;5116216;28;20223;-77
2022/08/05 07:55:11;;;;;;;8.43;5.38;;;23.70;1.00;;;;;;5097773;28;20646;-78
2022/08/05 07:57:36;;;;;;;8.05;4.30;;;24.20;1.00;;;;;;5116288;28;20202;-78
2022/08/05 08:00:07;;;;;;;10.40;4.53;;;24.20;1.00;;;;;;5116052;28;20163;-78
2022/08/05 08:02:32;;;;;;;8.50;4.03;;;25.00;1.00;;;;;;5115826;28;20221;-78
2022/08/05 08:04:58;;;;;;;9.68;3.97;;;25.40;1.00;;;;;;5115630;28;20630;-79
2022/08/05 08:07:24;;;;;;;8.95;4.35;;;25.80;99.90;;;;;;5116201;28;20171;-78
2022/08/05 08:09:51;;;;;;;10.05;3.45;;;26.10;1.00;;;;;;5116306;28;20653;-80
2022/08/05 08:12:16;;;;;;;5.55;3.38;;;27.20;99.90;;;;;;5116223;28;20262;-78
2022/08/05 08:14:43;;;;;;;4.55;2.75;;;27.90;99.90;;;;;;5116389;28;20188;-80
2022/08/05 08:17:09;;;;;;;6.78;2.90;;;28.40;96.50;;;;;;5116319;28;20171;-81
2022/08/05 08:19:42;;;;;;;7.03;2.97;;;29.70;1.00;;;;;;5115846;28;20167;-80
2022/08/05 08:22:09;;;;;;;6.85;2.85;;;28.40;1.00;;;;;;5115443;28;20202;-80
2022/08/05 08:24:35;;;;;;;4.90;2.42;;;27.60;1.00;;;;;;5115956;28;20236;-80
2022/08/05 08:27:01;;;;;;;8.65;2.60;;;27.40;1.00;;;;;;5115969;28;20168;-79
2022/08/05 08:29:27;;;;;;;5.88;2.70;;;26.60;43.50;;;;;;5115501;28;20247;-80
2022/08/05 08:31:53;;;;;;;3.88;2.50;;;26.80;1.00;;;;;;5116353;28;20685;-80
2022/08/05 08:34:21;;;;;;;7.18;2.50;;;27.70;1.00;;;;;;5116184;28;20166;-80
2022/08/05 08:36:47;;;;;;;4.90;2.30;;;28.00;99.90;;;;;;5116601;28;20718;-79
2022/08/05 08:39:13;;;;;;;5.45;2.63;;;29.50;1.00;;;;;;5116080;28;20356;-78
2022/08/05 08:41:40;;;;;;;7.85;2.78;;;30.60;99.90;;;;;;5115741;28;20224;-78
2022/08/05 08:44:11;;;;;;;7.22;2.17;;;32.10;99.90;;;;;;5116618;28;20171;-80
2022/08/05 08:46:37;;;;;;;4.72;2.60;;;31.80;99.90;;;;;;5115386;28;20171;-81
2022/08/05 08:49:03;;;;;;;5.38;2.78;;;31.20;99.90;;;;;;5115758;28;20633;-80
2022/08/05 08:51:32;;;;;;;3.15;2.20;;;30.40;99.90;;;;;;5115541;28;20228;-77
2022/08/05 08:53:59;;;;;;;5.53;2.00;;;31.10;99.90;;;;;;5115326;28;20644;-81
2022/08/05 08:56:25;;;;;;;5.43;2.30;;;32.30;99.90;;;;;;5115657;28;20182;-81
2022/08/05 08:58:51;;;;;;;5.22;2.03;;;32.60;99.90;;;;;;5115854;28;20247;-83
2022/08/05 09:01:18;;;;;;;3.20;2.28;;;31.70;99.90;;;;;;5114944;28;20222;-79
2022/08/05 09:03:49;;;;;;;4.70;2.10;;;30.60;99.90;;;;;;5115399;28;20174;-77
2022/08/05 09:06:14;;;;;;;4.50;2.00;;;30.30;99.90;;;;;;5115062;28;20254;-77
2022/08/05 09:08:40;;;;;;;6.63;1.83;;;30.80;99.90;;;;;;5114623;28;20564;-77
2022/08/05 09:11:07;;;;;;;2.75;1.92;;;32.00;99.90;;;;;;5114646;28;20197;-78
2022/08/05 09:13:33;;;;;;;4.13;1.88;;;32.90;99.90;;;;;;5097278;28;20573;-77
2022/08/05 09:16:00;;;;;;;7.90;1.77;;;32.80;99.90;;;;;;5114689;28;20175;-78
2022/08/05 09:18:26;;;;;;;5.88;2.28;;;32.30;99.90;;;;;;5114850;28;20179;-80
2022/08/05 09:20:52;;;;;;;3.38;2.78;;;32.30;99.90;;;;;;5114944;28;20627;-81
2022/08/05 09:23:19;;;;;;;4.57;3.08;;;32.00;99.90;;;;;;5114904;28;20175;-80
2022/08/05 09:25:49;;;;;;;5.97;3.40;;;31.50;99.90;;;;;;5114838;28;20167;-78
2022/08/05 09:28:17;;;;;;;4.80;3.55;;;30.50;99.90;;;;;;5114444;28;20171;-76
2022/08/05 09:31:04;;;;;;;4.43;3.70;;;29.40;99.90;;;;;;5114351;28;20179;-75
2022/08/05 09:33:31;;;;;;;6.03;3.60;;;29.50;99.90;;;;;;5100182;28;20195;-75
2022/08/05 09:36:04;;;;;;;4.28;3.10;;;30.30;99.90;;;;;;5095898;28;20171;-76
2022/08/05 09:38:31;;;;;;;4.55;3.30;;;31.60;99.90;;;;;;5114731;28;20163;-76
2022/08/05 09:41:05;;;;;;;3.60;2.88;;;33.00;99.90;;;;;;5113985;28;20631;-77
2022/08/05 09:43:34;;;;;;;5.03;2.42;;;33.10;99.90;;;;;;5096111;28;20277;-78
2022/08/05 09:46:01;;;;;;;3.90;2.33;;;32.40;99.90;;;;;;5114570;28;20209;-78
2022/08/05 09:48:30;;;;;;;3.55;1.90;;;33.10;99.90;;;;;;5113811;28;20171;-79
2022/08/05 09:51:01;;;;;;;4.13;2.00;;;33.60;99.90;;;;;;5113823;28;20170;-77
2022/08/05 09:53:28;;;;;;;2.58;2.13;;;34.40;99.90;;;;;;5095882;28;20567;-79
2022/08/05 09:56:00;;;;;;;2.95;2.33;;;35.40;93.70;;;;;;5113836;28;20163;-79
2022/08/05 09:58:27;;;;;;;4.53;2.10;;;35.40;90.10;;;;;;5114182;28;20175;-80
2022/08/05 10:01:02;;;;;;;3.70;1.80;;;35.30;75.90;;;;;;5114309;28;20249;-81
2022/08/05 10:03:28;;;;;;;1.45;1.35;;;34.60;75.80;;;;;;5094638;28;20174;-81
2022/08/05 10:06:09;;;;;;;3.15;2.13;;;33.30;75.50;;;;;;5114152;28;20186;-79
2022/08/05 10:08:36;;;;;;;3.30;1.60;;;32.50;90.50;;;;;;5113733;28;20635;-73
2022/08/05 10:11:14;;;;;;;2.15;1.60;;;32.20;95.50;;;;;;5113783;28;20171;-71
2022/08/05 10:13:40;;;;;;;2.45;1.50;;;32.40;98.50;;;;;;5113911;28;20187;-73
2022/08/05 10:16:26;;;;;;;1.60;1.13;;;32.80;91.40;;;;;;5113653;28;20193;-74
2022/08/05 10:18:53;;;;;;;1.73;1.30;;;33.40;81.10;;;;;;5113648;28;20261;-75
2022/08/05 10:21:19;;;;;;;3.67;1.35;;;33.80;73.30;;;;;;5113594;28;20217;-74
2022/08/05 10:23:46;;;;;;;2.17;1.40;;;34.20;61.00;;;;;;5113340;28;20163;-75
2022/08/05 10:26:12;;;;;;;3.38;1.20;;;34.30;59.00;;;;;;5113938;28;20589;-75
2022/08/05 10:28:37;;;;;;;3.95;1.30;;;34.50;55.00;;;;;;5113442;28;20171;-75
2022/08/05 10:31:03;;;;;;;3.17;1.40;;;34.90;65.90;;;;;;5113707;28;20159;-79
2022/08/05 10:33:31;;;;;;;2.22;1.52;;;33.90;44.20;;;;;;5113201;28;20174;-74
2022/08/05 10:35:59;;;;;;;4.18;1.25;;;33.40;51.10;;;;;;5113643;28;20258;-75
2022/08/05 10:38:27;;;;;;;2.17;1.30;;;33.40;44.70;;;;;;5112881;28;20176;-74
2022/08/05 10:41:04;;;;;;;3.08;1.10;;;34.10;45.00;;;;;;5113840;28;20254;-75
2022/08/05 10:43:36;;;;;;;4.30;1.90;;;34.70;40.60;;;;;;5113542;28;20178;-74
2022/08/05 10:46:07;;;;;;;4.00;1.63;;;34.80;36.70;;;;;;5113022;28;20198;-76
2022/08/05 10:48:37;;;;;;;3.45;1.40;;;34.40;35.80;;;;;;5113468;28;20182;-80
2022/08/05 10:51:05;;;;;;;3.55;1.10;;;33.40;37.00;;;;;;5113171;28;20170;-74
2022/08/05 10:53:41;;;;;;;1.88;1.10;;;32.70;35.40;;;;;;5113111;28;20523;-72
2022/08/05 10:56:10;;;;;;;3.28;1.30;;;32.20;42.10;;;;;;5113009;28;20175;-73
2022/08/05 10:58:52;;;;;;;3.30;1.30;;;32.30;44.90;;;;;;5113107;28;20167;-75
2022/08/05 11:01:46;;;;;;;2.67;1.50;;;31.90;45.60;;;;;;5093665;28;20202;-74
2022/08/05 11:04:22;;;;;;;4.32;2.05;;;31.80;50.90;;;;;;5111250;28;20186;-75
2022/08/05 11:06:57;;;;;;;2.30;2.10;;;32.10;46.60;;;;;;5112825;28;20167;-76
2022/08/05 11:09:48;;;;;;;1.98;1.50;;;32.40;45.60;;;;;;5112834;28;20318;-81
2022/08/05 11:12:35;;;;;;;6.30;2.33;;;31.90;47.20;;;;;;5112418;28;20223;-80
2022/08/05 11:15:15;;;;;;;2.63;1.90;;;30.90;50.90;;;;;;5095024;28;20171;-79
2022/08/05 11:17:42;;;;;;;4.05;2.97;;;30.10;53.50;;;;;;5094639;28;20171;-77
2022/08/05 11:20:38;;;;;;;3.72;2.08;;;29.20;61.00;;;;;;5113057;28;20170;-75
2022/08/05 11:23:25;;;;;;;5.10;3.00;;;29.20;77.20;;;;;;5093997;28;20229;-77
2022/08/05 11:26:05;;;;;;;3.53;1.95;;;29.10;82.50;;;;;;5112811;28;20167;-76
2022/08/05 11:28:33;;;;;;;3.90;1.35;;;28.60;94.90;;;;;;5113034;28;20648;-76
2022/08/05 11:31:02;;;;;;;5.00;2.30;;;29.20;97.90;;;;;;5112871;28;20658;-77
2022/08/05 11:33:29;;;;;;;4.78;1.60;;;29.40;94.90;;;;;;5094396;28;20290;-77
2022/08/05 11:35:57;;;;;;;2.05;1.85;;;29.50;96.90;;;;;;5112821;28;20602;-77
2022/08/05 11:38:37;;;;;;;1.80;1.40;;;29.40;97.30;;;;;;5112705;28;20179;-77
2022/08/05 11:41:15;;;;;;;4.35;2.03;;;29.50;99.20;;;;;;5113019;28;20522;-76
2022/08/05 11:43:51;;;;;;;3.35;1.50;;;28.70;99.90;;;;;;5112912;28;20171;-77
2022/08/05 11:46:23;;;;;;;4.07;1.90;;;28.30;99.90;;;;;;5112320;28;20697;-76
2022/08/05 11:48:49;;;;;;;2.70;1.38;;;28.10;99.90;;;;;;5112414;28;20175;-76
2022/08/05 11:51:15;;;;;;;2.75;1.73;;;28.00;99.90;;;;;;5112097;28;20517;-76
2022/08/05 11:53:41;;;;;;;5.78;2.15;;;28.20;99.90;;;;;;5112436;28;20256;-76
2022/08/05 11:56:07;;;;;;;2.25;1.13;;;28.30;99.90;;;;;;5112619;28;20179;-77
2022/08/05 11:58:38;;;;;;;4.32;1.23;;;28.30;99.90;;;;;;5112489;28;20167;-77
2022/08/05 12:01:05;;;;;;;3.30;1.40;;;28.20;99.90;;;;;;5112437;28;20655;-78
2022/08/05 12:03:52;;;;;;;5.22;1.20;;;28.00;99.90;;;;;;5112378;28;20175;-77
2022/08/05 12:06:21;;;;;;;8.82;1.73;;;27.40;99.90;;;;;;5111985;28;20189;-76
2022/08/05 12:08:52;;;;;;;4.40;1.52;;;27.20;99.90;;;;;;5112080;28;20163;-76
2022/08/05 12:11:26;;;;;;;2.22;1.40;;;27.30;99.90;;;;;;5112206;28;20232;-76
2022/08/05 12:13:52;;;;;;;3.38;1.25;;;27.30;99.90;;;;;;5097719;28;20177;-77
2022/08/05 12:16:19;;;;;;;1.98;1.40;;;27.10;99.90;;;;;;5116313;28;20282;-77
2022/08/05 12:18:45;;;;;;;2.50;1.40;;;27.30;99.90;;;;;;5098077;28;20228;-78
2022/08/05 12:21:17;;;;;;;4.93;1.13;;;27.40;99.90;;;;;;5097389;28;20214;-77
2022/08/05 12:24:03;;;;;;;3.42;1.50;;;27.70;99.90;;;;;;5116845;28;20164;-77
2022/08/05 12:26:41;;;;;;;3.60;1.30;;;28.00;99.90;;;;;;5116345;28;20171;-76
2022/08/05 12:29:11;;;;;;;5.90;1.20;;;27.90;99.90;;;;;;5116115;28;20194;-77
2022/08/05 12:31:37;;;;;;;3.75;1.20;;;27.70;99.90;;;;;;5115933;28;20191;-77
2022/08/05 12:34:07;;;;;;;2.50;1.25;;;27.60;99.90;;;;;;5115219;28;20202;-77
2022/08/05 12:36:34;;;;;;;4.10;1.50;;;27.60;99.90;;;;;;5115730;28;20166;-77
2022/08/05 12:39:01;;;;;;;3.13;1.40;;;27.40;99.90;;;;;;5116035;28;20175;-77
2022/08/05 12:41:34;;;;;;;2.28;1.40;;;27.30;99.90;;;;;;5096918;28;20195;-77
2022/08/05 12:44:04;;;;;;;2.92;1.10;;;26.90;99.90;;;;;;5116191;28;20171;-77
2022/08/05 12:46:31;;;;;;;3.03;1.27;;;26.60;99.90;;;;;;5115309;28;20228;-77
2022/08/05 12:48:58;;;;;;;2.70;1.20;;;26.50;99.90;;;;;;5115396;28;20167;-77
2022/08/05 12:51:26;;;;;;;3.17;1.50;;;26.50;99.90;;;;;;5114937;28;20171;-77
2022/08/05 12:53:58;;;;;;;3.33;1.23;;;26.30;99.90;;;;;;5097131;28;20175;-78
2022/08/05 12:56:24;;;;;;;2.58;1.20;;;26.40;99.90;;;;;;5115121;28;20220;-76
2022/08/05 12:59:15;;;;;;;2.67;1.00;;;26.50;99.90;;;;;;5114964;28;20569;-76